Time;durP1;ratioP1;P1;durP2;ratioP2;P2;SDS_P1;SDS_P2;PMS_P1;PMS_P2;Temp;Humidity;BMP_temperature;BMP_pressure;BME280_temperature;BME280_humidity;BME280_pressure;Samples;Min_cycle;Max_cycle;Signal;HPM_P1;HPM_P2
2021/12/30 00:01:00;;;;;;;0.80;0.60;;;13.00;99.90;;;;;;5053567;28;20406;-64
2021/12/30 00:03:26;;;;;;;0.40;0.40;;;13.00;99.90;;;;;;5053336;28;20770;-65
2021/12/30 00:05:52;;;;;;;0.40;0.40;;;13.00;99.90;;;;;;5053480;28;20464;-64
2021/12/30 00:08:21;;;;;;;0.67;0.50;;;13.00;99.90;;;;;;5052015;28;20496;-64
2021/12/30 00:10:48;;;;;;;0.60;0.60;;;13.00;99.90;;;;;;5053346;28;20413;-63
2021/12/30 00:13:14;;;;;;;0.50;0.50;;;13.10;99.90;;;;;;5053008;28;20740;-64
2021/12/30 00:15:39;;;;;;;0.70;0.70;;;13.10;99.90;;;;;;5053352;28;20402;-64
2021/12/30 00:18:07;;;;;;;0.40;0.40;;;13.10;99.90;;;;;;5053314;28;20425;-64
2021/12/30 00:20:33;;;;;;;0.53;0.53;;;13.10;99.90;;;;;;5053156;28;20238;-63
2021/12/30 00:23:02;;;;;;;2.00;0.60;;;13.20;99.90;;;;;;5052853;28;20407;-64
2021/12/30 00:25:28;;;;;;;0.40;0.40;;;13.20;99.90;;;;;;5053169;28;20444;-64
2021/12/30 00:27:54;;;;;;;0.40;0.40;;;13.20;99.90;;;;;;5053347;28;20426;-64
2021/12/30 00:30:20;;;;;;;3.23;0.70;;;13.20;99.90;;;;;;5053283;28;20473;-64
2021/12/30 00:32:45;;;;;;;0.50;0.50;;;13.20;99.90;;;;;;5052653;28;20630;-63
2021/12/30 00:35:11;;;;;;;0.40;0.40;;;13.20;99.90;;;;;;5053070;28;20178;-65
2021/12/30 00:37:37;;;;;;;0.50;0.40;;;13.20;99.90;;;;;;5053284;28;20191;-64
2021/12/30 00:40:04;;;;;;;0.53;0.53;;;13.30;99.90;;;;;;5052994;28;20421;-64
2021/12/30 00:42:30;;;;;;;1.03;0.60;;;13.20;99.90;;;;;;5052984;28;20863;-64
2021/12/30 00:44:55;;;;;;;0.50;0.50;;;13.30;99.90;;;;;;5051895;28;20506;-64
2021/12/30 00:47:21;;;;;;;0.67;0.67;;;13.30;99.90;;;;;;5052902;28;20192;-64
2021/12/30 00:49:46;;;;;;;0.60;0.60;;;13.30;99.90;;;;;;5052964;28;20623;-65
2021/12/30 00:52:12;;;;;;;0.50;0.50;;;13.30;99.90;;;;;;5051343;28;20222;-65
2021/12/30 00:54:38;;;;;;;1.00;0.63;;;13.30;99.90;;;;;;5052962;28;20170;-65
2021/12/30 00:57:03;;;;;;;0.70;0.60;;;13.30;99.90;;;;;;5052813;28;20303;-65
2021/12/30 00:59:29;;;;;;;0.60;0.60;;;13.20;99.90;;;;;;5068242;28;20191;-66
2021/12/30 01:01:55;;;;;;;0.70;0.70;;;13.20;99.90;;;;;;5076226;28;20233;-64
2021/12/30 01:04:21;;;;;;;0.87;0.80;;;13.20;99.90;;;;;;5076734;28;20199;-64
2021/12/30 01:06:47;;;;;;;0.57;0.57;;;13.10;99.90;;;;;;5076598;28;20213;-64
2021/12/30 01:09:12;;;;;;;2.20;0.97;;;13.10;99.90;;;;;;5076739;28;20394;-64
2021/12/30 01:11:38;;;;;;;0.80;0.80;;;13.00;99.90;;;;;;5076609;28;20170;-65
2021/12/30 01:14:14;;;;;;;0.80;0.80;;;13.00;99.90;;;;;;5076736;28;20628;-65
2021/12/30 01:16:43;;;;;;;0.77;0.77;;;13.00;99.90;;;;;;5076400;28;20768;-64
2021/12/30 01:19:42;;;;;;;0.60;0.60;;;13.00;99.90;;;;;;5075151;28;20419;-64
2021/12/30 01:22:08;;;;;;;0.55;0.45;;;12.90;99.90;;;;;;5075012;28;20924;-64
2021/12/30 01:24:34;;;;;;;0.60;0.60;;;12.80;99.90;;;;;;5076462;28;20175;-65
2021/12/30 01:26:59;;;;;;;0.50;0.50;;;12.80;99.90;;;;;;5076320;28;20584;-65
2021/12/30 01:29:29;;;;;;;0.77;0.77;;;12.70;99.90;;;;;;5076472;28;20177;-65
2021/12/30 01:31:54;;;;;;;0.80;0.50;;;12.70;99.90;;;;;;5075945;28;20171;-64
2021/12/30 01:34:21;;;;;;;2.00;0.90;;;12.70;99.90;;;;;;5076234;28;20410;-64
2021/12/30 01:36:46;;;;;;;0.60;0.60;;;12.60;99.90;;;;;;5076117;28;20190;-66
2021/12/30 01:39:13;;;;;;;0.50;0.50;;;12.60;99.90;;;;;;5076260;28;20470;-65
2021/12/30 01:41:40;;;;;;;0.40;0.40;;;12.60;99.90;;;;;;5075789;28;20197;-64
2021/12/30 01:44:06;;;;;;;0.47;0.43;;;12.60;99.90;;;;;;5075831;28;20503;-64
2021/12/30 01:46:40;;;;;;;0.33;0.33;;;12.70;99.90;;;;;;5075884;28;20551;-64
2021/12/30 01:49:06;;;;;;;0.77;0.77;;;12.70;99.90;;;;;;5076029;28;20966;-64
2021/12/30 01:51:32;;;;;;;0.95;0.77;;;12.70;99.90;;;;;;5075374;28;20174;-65
2021/12/30 01:53:58;;;;;;;0.50;0.50;;;12.70;99.90;;;;;;5075905;28;20553;-65
2021/12/30 01:56:24;;;;;;;1.00;0.97;;;12.70;99.90;;;;;;5075697;28;20221;-65
2021/12/30 01:58:49;;;;;;;2.00;1.60;;;12.70;99.90;;;;;;5068776;28;20171;-64
2021/12/30 02:01:15;;;;;;;1.17;0.87;;;12.70;99.90;;;;;;5055471;28;20175;-64
2021/12/30 02:03:41;;;;;;;0.80;0.80;;;12.70;99.90;;;;;;5055530;28;20236;-64
2021/12/30 02:06:07;;;;;;;4.00;0.90;;;12.70;99.90;;;;;;5055702;28;20660;-64
2021/12/30 02:08:32;;;;;;;1.03;0.90;;;12.80;99.90;;;;;;5055566;28;20741;-64
2021/12/30 02:10:58;;;;;;;0.70;0.70;;;12.80;99.90;;;;;;5055184;28;20675;-64
2021/12/30 02:13:24;;;;;;;0.80;0.60;;;12.80;99.90;;;;;;5055198;28;20240;-64
2021/12/30 02:15:50;;;;;;;1.23;1.07;;;12.80;99.90;;;;;;5055316;28;20185;-65
2021/12/30 02:18:16;;;;;;;0.80;0.80;;;12.80;99.90;;;;;;5055528;28;20193;-64
2021/12/30 02:20:51;;;;;;;1.00;1.00;;;12.80;99.90;;;;;;5054181;28;20919;-64
2021/12/30 02:23:32;;;;;;;3.67;2.20;;;12.80;99.90;;;;;;5054959;28;20815;-65
2021/12/30 02:26:18;;;;;;;1.60;1.50;;;12.70;99.90;;;;;;5055107;28;20539;-65
2021/12/30 02:28:45;;;;;;;1.27;1.17;;;12.70;99.90;;;;;;5055304;28;20394;-64
2021/12/30 02:31:17;;;;;;;2.07;1.20;;;12.60;99.90;;;;;;5053671;28;20763;-65
2021/12/30 02:33:44;;;;;;;0.80;0.80;;;12.70;99.90;;;;;;5055200;28;20455;-65
2021/12/30 02:36:11;;;;;;;1.43;1.00;;;12.70;99.90;;;;;;5054840;28;20471;-64
2021/12/30 02:38:37;;;;;;;0.63;0.63;;;12.80;99.90;;;;;;5055231;28;20384;-64
2021/12/30 02:41:04;;;;;;;0.97;0.60;;;12.90;99.90;;;;;;5053485;28;20422;-64
2021/12/30 02:43:32;;;;;;;0.87;0.60;;;12.90;99.90;;;;;;5054717;28;20471;-65
2021/12/30 02:45:59;;;;;;;1.90;0.70;;;12.90;99.90;;;;;;5055401;28;20457;-65
2021/12/30 02:48:32;;;;;;;0.53;0.53;;;13.00;99.90;;;;;;5054879;28;20412;-65
2021/12/30 02:51:01;;;;;;;0.77;0.77;;;13.00;99.90;;;;;;5054812;28;20469;-64
2021/12/30 02:53:26;;;;;;;1.83;1.33;;;13.00;99.90;;;;;;5054641;28;20469;-64
2021/12/30 02:55:53;;;;;;;0.53;0.53;;;12.90;99.90;;;;;;5054723;28;20197;-64
2021/12/30 02:58:21;;;;;;;1.63;1.03;;;12.90;99.90;;;;;;5057185;28;20795;-66
2021/12/30 03:00:48;;;;;;;0.40;0.40;;;12.80;99.90;;;;;;5074317;28;20421;-65
2021/12/30 03:03:22;;;;;;;2.00;0.75;;;12.80;99.90;;;;;;5073935;28;20568;-65
2021/12/30 03:05:48;;;;;;;0.90;0.80;;;12.70;99.90;;;;;;5074508;28;20209;-65
2021/12/30 03:08:14;;;;;;;0.77;0.70;;;12.70;99.90;;;;;;5074368;28;20738;-65
2021/12/30 03:10:40;;;;;;;0.93;0.70;;;12.70;99.90;;;;;;5074263;28;20532;-65
2021/12/30 03:13:08;;;;;;;1.13;0.60;;;12.70;99.90;;;;;;5073796;28;20420;-64
2021/12/30 03:15:34;;;;;;;0.60;0.60;;;12.70;99.90;;;;;;5074511;28;20179;-65
2021/12/30 03:18:00;;;;;;;0.60;0.60;;;12.80;99.90;;;;;;5074185;28;20198;-65
2021/12/30 03:20:25;;;;;;;0.43;0.43;;;12.80;99.90;;;;;;5074145;28;20462;-64
2021/12/30 03:22:51;;;;;;;0.50;0.50;;;12.90;99.90;;;;;;5073000;28;20253;-64
2021/12/30 03:25:17;;;;;;;0.50;0.50;;;12.90;99.90;;;;;;5074174;28;20201;-65
2021/12/30 03:27:43;;;;;;;0.50;0.50;;;12.90;99.90;;;;;;5073997;28;20223;-65
2021/12/30 03:30:13;;;;;;;0.70;0.70;;;13.00;99.90;;;;;;5073933;28;20407;-63
2021/12/30 03:32:38;;;;;;;0.38;0.38;;;13.00;99.90;;;;;;5073684;28;20404;-65
2021/12/30 03:35:05;;;;;;;0.80;0.67;;;13.00;99.90;;;;;;5073935;28;20183;-65
2021/12/30 03:37:31;;;;;;;0.73;0.60;;;13.00;99.90;;;;;;5073628;28;20196;-64
2021/12/30 03:39:56;;;;;;;0.70;0.70;;;13.10;99.90;;;;;;5073866;28;20409;-64
2021/12/30 03:42:22;;;;;;;0.70;0.70;;;13.10;99.90;;;;;;5073393;28;20183;-65
2021/12/30 03:44:48;;;;;;;0.80;0.43;;;13.10;99.90;;;;;;5073824;28;20202;-65
2021/12/30 03:47:17;;;;;;;0.33;0.33;;;13.10;99.90;;;;;;5073738;28;20199;-64
2021/12/30 03:49:45;;;;;;;0.43;0.43;;;13.10;99.90;;;;;;5073687;28;20395;-63
2021/12/30 03:52:20;;;;;;;0.67;0.67;;;13.20;99.90;;;;;;5073143;28;20431;-64
2021/12/30 03:54:47;;;;;;;0.50;0.50;;;13.20;99.90;;;;;;5073686;28;20389;-64
2021/12/30 03:57:13;;;;;;;0.47;0.47;;;13.20;99.90;;;;;;5073361;28;20509;-64
2021/12/30 03:59:38;;;;;;;1.00;0.67;;;13.30;99.90;;;;;;5059675;28;20956;-64
2021/12/30 04:02:04;;;;;;;0.70;0.70;;;13.30;99.90;;;;;;5053386;28;20185;-65
2021/12/30 04:04:31;;;;;;;0.73;0.60;;;13.30;99.90;;;;;;5053222;28;20200;-64
2021/12/30 04:06:56;;;;;;;0.60;0.57;;;13.40;99.90;;;;;;5053295;28;20212;-64
2021/12/30 04:09:22;;;;;;;0.50;0.50;;;13.40;99.90;;;;;;5053461;28;20983;-64
2021/12/30 04:11:48;;;;;;;0.60;0.60;;;13.40;99.90;;;;;;5053169;28;20711;-63
2021/12/30 04:14:13;;;;;;;0.57;0.57;;;13.40;99.90;;;;;;5053362;28;20582;-64
2021/12/30 04:16:39;;;;;;;0.67;0.67;;;13.50;99.90;;;;;;5053253;28;20678;-63
2021/12/30 04:19:05;;;;;;;0.83;0.70;;;13.50;99.90;;;;;;5053179;28;20180;-64
2021/12/30 04:21:32;;;;;;;0.50;0.40;;;13.50;99.90;;;;;;5053135;28;20184;-64
2021/12/30 04:23:57;;;;;;;0.70;0.70;;;13.50;99.90;;;;;;5051852;28;20492;-64
2021/12/30 04:26:23;;;;;;;0.50;0.50;;;13.50;99.90;;;;;;5053058;28;20461;-64
2021/12/30 04:28:49;;;;;;;0.40;0.40;;;13.50;99.90;;;;;;5053263;28;20178;-64
2021/12/30 04:31:15;;;;;;;1.40;0.83;;;13.50;99.90;;;;;;5052856;28;20187;-64
2021/12/30 04:33:41;;;;;;;0.57;0.40;;;13.40;99.90;;;;;;5054871;28;20399;-64
2021/12/30 04:36:07;;;;;;;0.77;0.60;;;13.40;99.90;;;;;;5057318;28;20399;-63
2021/12/30 04:38:34;;;;;;;0.53;0.40;;;13.40;99.90;;;;;;5057107;28;20403;-64
2021/12/30 04:41:00;;;;;;;1.03;0.97;;;13.40;99.90;;;;;;5057223;28;20412;-67
2021/12/30 04:43:26;;;;;;;0.53;0.53;;;13.40;99.90;;;;;;5057168;28;20800;-64
2021/12/30 04:45:53;;;;;;;0.43;0.43;;;13.30;99.90;;;;;;5057062;28;20458;-64
2021/12/30 04:48:19;;;;;;;0.80;0.80;;;13.30;99.90;;;;;;5057085;28;20460;-63
2021/12/30 04:50:45;;;;;;;0.40;0.40;;;13.30;99.90;;;;;;5057057;28;20447;-63
2021/12/30 04:53:15;;;;;;;0.50;0.50;;;13.20;99.90;;;;;;5056382;28;20378;-63
2021/12/30 04:55:41;;;;;;;0.60;0.60;;;13.20;99.90;;;;;;5056878;28;20413;-64
2021/12/30 04:58:07;;;;;;;0.60;0.60;;;13.20;99.90;;;;;;5057645;28;20844;-64
2021/12/30 05:00:33;;;;;;;0.43;0.43;;;13.10;99.90;;;;;;5077236;28;20401;-63
2021/12/30 05:05:25;;;;;;;0.50;0.50;;;13.10;99.90;;;;;;5076797;28;20544;-65
2021/12/30 05:07:51;;;;;;;0.50;0.50;;;13.00;99.90;;;;;;5076611;28;20194;-63
2021/12/30 05:10:17;;;;;;;0.83;0.83;;;13.00;99.90;;;;;;5077013;28;20756;-63
2021/12/30 05:12:42;;;;;;;0.40;0.40;;;13.00;99.90;;;;;;5076333;28;20404;-64
2021/12/30 05:15:08;;;;;;;0.40;0.40;;;12.90;99.90;;;;;;5075272;28;20177;-62
2021/12/30 05:17:35;;;;;;;0.50;0.50;;;12.90;99.90;;;;;;5076452;28;20365;-64
2021/12/30 05:20:01;;;;;;;0.47;0.47;;;12.90;99.90;;;;;;5076354;28;20404;-64
2021/12/30 05:22:27;;;;;;;0.60;0.60;;;12.90;99.90;;;;;;5075971;28;20878;-64
2021/12/30 05:24:52;;;;;;;0.67;0.53;;;12.90;99.90;;;;;;5076443;28;20449;-63
2021/12/30 05:27:19;;;;;;;0.50;0.50;;;12.90;99.90;;;;;;5076210;28;20187;-63
2021/12/30 05:29:46;;;;;;;0.60;0.60;;;12.90;99.90;;;;;;5076147;28;20175;-64
2021/12/30 05:32:12;;;;;;;0.50;0.50;;;12.90;99.90;;;;;;5075920;28;20798;-63
2021/12/30 05:34:38;;;;;;;0.50;0.50;;;13.00;99.90;;;;;;5076262;28;20397;-64
2021/12/30 05:37:03;;;;;;;0.30;0.30;;;13.00;99.90;;;;;;5076237;28;20452;-63
2021/12/30 05:39:30;;;;;;;0.50;0.50;;;13.00;99.90;;;;;;5076245;28;20179;-63
2021/12/30 05:41:56;;;;;;;0.80;0.53;;;13.00;99.90;;;;;;5075789;28;20541;-64
2021/12/30 05:44:21;;;;;;;0.77;0.50;;;13.00;99.90;;;;;;5075605;28;20416;-64
2021/12/30 05:46:47;;;;;;;0.30;0.30;;;13.00;99.90;;;;;;5075488;28;20982;-64
2021/12/30 05:49:13;;;;;;;0.50;0.50;;;13.00;99.90;;;;;;5075814;28;20177;-64
2021/12/30 05:51:41;;;;;;;0.67;0.67;;;13.00;99.90;;;;;;5075443;28;20629;-64
2021/12/30 05:54:07;;;;;;;0.43;0.43;;;13.00;99.90;;;;;;5075997;28;20201;-63
2021/12/30 05:56:33;;;;;;;0.43;0.40;;;13.00;99.90;;;;;;5075731;28;20408;-64
2021/12/30 05:58:58;;;;;;;0.43;0.33;;;13.00;99.90;;;;;;5067573;28;20422;-63
2021/12/30 06:01:24;;;;;;;0.40;0.40;;;13.00;99.90;;;;;;5055527;28;20180;-63
2021/12/30 06:03:50;;;;;;;1.07;0.60;;;13.00;99.90;;;;;;5055557;28;20237;-64
2021/12/30 06:06:16;;;;;;;1.47;0.40;;;13.00;99.90;;;;;;5055354;28;20711;-63
2021/12/30 06:08:41;;;;;;;0.47;0.47;;;13.10;99.90;;;;;;5055570;28;20167;-63
2021/12/30 06:11:07;;;;;;;0.40;0.40;;;13.00;99.90;;;;;;5055489;28;20649;-64
2021/12/30 06:13:32;;;;;;;0.60;0.60;;;13.00;99.90;;;;;;5055375;28;20264;-63
2021/12/30 06:15:58;;;;;;;0.30;0.30;;;13.00;99.90;;;;;;5055193;28;20198;-63
2021/12/30 06:18:24;;;;;;;0.80;0.60;;;13.00;99.90;;;;;;5055460;28;20208;-65
2021/12/30 06:20:49;;;;;;;0.60;0.40;;;13.00;99.90;;;;;;5054124;28;20168;-63
2021/12/30 06:23:15;;;;;;;0.50;0.40;;;13.00;99.90;;;;;;5054867;28;20172;-64
2021/12/30 06:25:41;;;;;;;0.50;0.50;;;13.00;99.90;;;;;;5055593;28;20222;-63
2021/12/30 06:28:07;;;;;;;0.50;0.50;;;13.00;99.90;;;;;;5055172;28;20215;-63
2021/12/30 06:30:33;;;;;;;0.43;0.43;;;12.90;99.90;;;;;;5055280;28;20835;-65
2021/12/30 06:32:58;;;;;;;0.50;0.30;;;12.90;99.90;;;;;;5054485;28;20176;-64
2021/12/30 06:35:24;;;;;;;0.30;0.30;;;12.90;99.90;;;;;;5055167;28;20167;-64
2021/12/30 06:37:50;;;;;;;0.40;0.40;;;12.90;99.90;;;;;;5054876;28;20212;-64
2021/12/30 06:40:16;;;;;;;0.50;0.40;;;12.90;99.90;;;;;;5055267;28;20182;-64
2021/12/30 06:42:43;;;;;;;1.63;1.53;;;12.90;99.90;;;;;;5054546;28;20179;-63
2021/12/30 06:45:09;;;;;;;0.50;0.50;;;12.90;99.90;;;;;;5054869;28;20418;-64
2021/12/30 06:47:35;;;;;;;0.50;0.50;;;12.90;99.90;;;;;;5054677;28;20405;-65
2021/12/30 06:50:02;;;;;;;0.40;0.37;;;12.90;99.90;;;;;;5054660;28;20928;-64
2021/12/30 06:52:29;;;;;;;0.40;0.40;;;12.90;99.90;;;;;;5054313;28;20162;-64
2021/12/30 06:54:54;;;;;;;0.63;0.63;;;12.80;99.90;;;;;;5054598;28;20823;-64
2021/12/30 06:57:20;;;;;;;0.50;0.50;;;12.80;99.90;;;;;;5054536;28;20476;-64
2021/12/30 06:59:46;;;;;;;0.60;0.60;;;12.80;99.90;;;;;;5069140;28;20443;-64
2021/12/30 07:02:14;;;;;;;1.92;1.20;;;12.80;99.90;;;;;;5073914;28;20181;-64
2021/12/30 07:04:40;;;;;;;3.93;1.03;;;12.80;99.90;;;;;;5072886;28;20213;-64
2021/12/30 07:07:05;;;;;;;0.50;0.47;;;12.80;99.90;;;;;;5074224;28;20875;-63
2021/12/30 07:09:31;;;;;;;0.70;0.70;;;12.80;99.90;;;;;;5074414;28;20687;-63
2021/12/30 07:11:58;;;;;;;0.50;0.50;;;12.80;99.90;;;;;;5073932;28;20877;-63
2021/12/30 07:14:25;;;;;;;0.83;0.83;;;12.80;99.90;;;;;;5074250;28;20797;-63
2021/12/30 07:16:51;;;;;;;0.50;0.40;;;12.80;99.90;;;;;;5073727;28;20457;-64
2021/12/30 07:19:17;;;;;;;1.03;0.50;;;12.80;99.90;;;;;;5072574;28;20779;-64
2021/12/30 07:21:43;;;;;;;0.40;0.37;;;12.80;99.90;;;;;;5073314;28;20405;-64
2021/12/30 07:24:10;;;;;;;0.73;0.73;;;12.80;99.90;;;;;;5073914;28;20210;-64
2021/12/30 07:26:36;;;;;;;1.00;0.90;;;12.80;99.90;;;;;;5073780;28;20432;-64
2021/12/30 07:29:03;;;;;;;0.70;0.50;;;12.80;99.90;;;;;;5073797;28;20755;-64
2021/12/30 07:31:29;;;;;;;0.40;0.40;;;12.80;99.90;;;;;;5073200;28;20813;-64
2021/12/30 07:33:55;;;;;;;1.63;0.50;;;12.80;99.90;;;;;;5059384;28;20931;-63
2021/12/30 07:36:21;;;;;;;0.50;0.50;;;12.80;99.90;;;;;;5053803;28;20434;-63
2021/12/30 07:38:48;;;;;;;0.50;0.50;;;12.80;99.90;;;;;;5053092;28;20177;-64
2021/12/30 07:41:14;;;;;;;0.70;0.60;;;12.80;99.90;;;;;;5052707;28;20172;-67
2021/12/30 07:43:40;;;;;;;0.57;0.57;;;12.80;99.90;;;;;;5053441;28;20410;-63
2021/12/30 07:46:07;;;;;;;5.67;3.20;;;12.90;99.90;;;;;;5051891;28;20440;-63
2021/12/30 07:48:33;;;;;;;1.17;1.03;;;12.90;99.90;;;;;;5053575;28;20459;-62
2021/12/30 07:50:59;;;;;;;5.23;4.60;;;12.90;99.90;;;;;;5053587;28;20408;-66
2021/12/30 07:53:24;;;;;;;3.47;3.17;;;12.90;99.90;;;;;;5053357;28;20406;-63
2021/12/30 07:55:50;;;;;;;1.60;1.50;;;12.90;99.90;;;;;;5052665;28;20175;-62
2021/12/30 07:58:16;;;;;;;2.00;1.63;;;12.90;99.90;;;;;;5055328;28;20202;-62
2021/12/30 08:00:42;;;;;;;5.00;1.83;;;13.00;99.90;;;;;;5073297;28;20177;-62
2021/12/30 08:03:07;;;;;;;1.83;1.73;;;13.00;99.90;;;;;;5072825;28;20375;-62
2021/12/30 08:05:33;;;;;;;1.10;1.00;;;13.00;99.90;;;;;;5073244;28;20244;-61
2021/12/30 08:07:59;;;;;;;1.13;1.13;;;13.00;99.90;;;;;;5072768;28;20206;-62
2021/12/30 08:10:26;;;;;;;0.70;0.70;;;13.00;99.90;;;;;;5073421;28;20474;-62
2021/12/30 08:12:54;;;;;;;1.23;1.13;;;13.10;99.90;;;;;;5072837;28;20175;-62
2021/12/30 08:15:20;;;;;;;0.82;0.60;;;13.10;99.90;;;;;;5073197;28;20190;-62
2021/12/30 08:17:47;;;;;;;0.43;0.43;;;13.10;99.90;;;;;;5073209;28;20190;-62
2021/12/30 08:20:14;;;;;;;1.47;1.30;;;13.10;99.90;;;;;;5073364;28;20398;-63
2021/12/30 08:22:40;;;;;;;2.07;1.30;;;13.20;99.90;;;;;;5072893;28;20401;-63
2021/12/30 08:25:07;;;;;;;0.80;0.80;;;13.20;99.90;;;;;;5073053;28;20430;-63
2021/12/30 08:27:33;;;;;;;0.80;0.80;;;13.20;99.90;;;;;;5073245;28;20187;-63
2021/12/30 08:29:59;;;;;;;1.43;0.70;;;13.30;99.90;;;;;;5072977;28;20992;-62
2021/12/30 08:32:24;;;;;;;0.63;0.63;;;13.30;99.90;;;;;;5072948;28;20218;-62
2021/12/30 08:34:50;;;;;;;0.53;0.53;;;13.30;99.90;;;;;;5070110;28;20202;-62
2021/12/30 08:37:16;;;;;;;0.40;0.40;;;13.30;99.90;;;;;;5052810;28;20553;-62
2021/12/30 08:39:44;;;;;;;0.73;0.73;;;13.40;99.90;;;;;;5052944;28;20475;-63
2021/12/30 08:42:19;;;;;;;0.90;0.90;;;13.40;99.90;;;;;;5052355;28;20502;-65
2021/12/30 08:44:46;;;;;;;3.43;1.20;;;13.40;99.90;;;;;;5052924;28;20777;-63
2021/12/30 08:47:13;;;;;;;0.50;0.50;;;13.40;99.90;;;;;;5052849;28;20508;-62
2021/12/30 08:49:41;;;;;;;0.63;0.63;;;13.40;99.90;;;;;;5052820;28;20400;-63
2021/12/30 08:52:09;;;;;;;0.50;0.50;;;13.50;99.90;;;;;;5052486;28;20942;-62
2021/12/30 08:54:35;;;;;;;0.80;0.70;;;13.50;99.90;;;;;;5052928;28;20407;-63
2021/12/30 08:57:02;;;;;;;0.60;0.60;;;13.50;99.90;;;;;;5052594;28;20438;-62
2021/12/30 08:59:27;;;;;;;0.60;0.60;;;13.60;99.90;;;;;;5065649;28;20911;-61
2021/12/30 09:01:53;;;;;;;0.57;0.57;;;13.70;99.90;;;;;;5072348;28;20406;-62
2021/12/30 09:04:19;;;;;;;0.53;0.53;;;13.80;99.90;;;;;;5072470;28;20199;-66
2021/12/30 09:06:44;;;;;;;1.80;1.70;;;14.00;99.90;;;;;;5072535;28;20203;-62
2021/12/30 09:09:10;;;;;;;4.47;3.80;;;14.20;99.90;;;;;;5072697;28;20168;-65
2021/12/30 09:11:35;;;;;;;3.47;3.17;;;14.60;99.90;;;;;;5072120;28;20207;-64
2021/12/30 09:14:01;;;;;;;1.00;1.00;;;15.00;99.90;;;;;;5072584;28;20247;-63
2021/12/30 09:16:27;;;;;;;1.33;0.60;;;15.40;99.90;;;;;;5072474;28;20276;-64
2021/12/30 09:18:52;;;;;;;1.27;0.93;;;15.70;99.90;;;;;;5072813;28;20603;-64
2021/12/30 09:21:18;;;;;;;0.87;0.73;;;16.00;99.90;;;;;;5076121;28;20252;-64
2021/12/30 09:23:43;;;;;;;0.57;0.50;;;16.20;99.90;;;;;;5076255;28;20209;-65
2021/12/30 09:26:09;;;;;;;0.50;0.50;;;16.50;99.90;;;;;;5076135;28;20196;-64
2021/12/30 09:28:35;;;;;;;0.60;0.50;;;16.60;99.90;;;;;;5076308;28;20642;-64
2021/12/30 09:31:01;;;;;;;0.90;0.90;;;16.70;99.90;;;;;;5075947;28;20194;-64
2021/12/30 09:33:26;;;;;;;0.40;0.40;;;16.60;99.90;;;;;;5074573;28;20176;-64
2021/12/30 09:35:52;;;;;;;0.30;0.30;;;16.60;99.90;;;;;;5074656;28;20935;-65
2021/12/30 09:38:19;;;;;;;0.43;0.43;;;16.70;99.90;;;;;;5075993;28;20682;-66
2021/12/30 09:40:45;;;;;;;0.40;0.40;;;16.90;99.90;;;;;;5075866;28;20176;-65
2021/12/30 09:43:11;;;;;;;0.30;0.30;;;17.00;99.90;;;;;;5075393;28;20411;-65
2021/12/30 09:45:40;;;;;;;0.40;0.30;;;17.00;99.90;;;;;;5075875;28;20796;-64
2021/12/30 09:48:09;;;;;;;0.87;0.40;;;17.00;99.90;;;;;;5074078;28;20484;-67
2021/12/30 09:50:42;;;;;;;0.40;0.40;;;16.90;99.90;;;;;;5073558;28;20393;-65
2021/12/30 09:53:08;;;;;;;0.30;0.30;;;16.70;99.90;;;;;;5074577;28;20799;-66
2021/12/30 09:55:34;;;;;;;0.43;0.40;;;16.60;99.90;;;;;;5075057;28;20511;-65
2021/12/30 09:58:00;;;;;;;0.80;0.50;;;16.60;99.90;;;;;;5074920;28;20515;-66
2021/12/30 10:00:27;;;;;;;0.40;0.40;;;16.60;99.90;;;;;;5055391;28;20430;-66
2021/12/30 10:02:53;;;;;;;0.53;0.53;;;16.60;99.90;;;;;;5054778;28;20768;-66
2021/12/30 10:05:25;;;;;;;0.50;0.50;;;16.70;99.90;;;;;;5055420;28;20407;-65
2021/12/30 10:08:09;;;;;;;0.83;0.40;;;16.80;99.90;;;;;;5055755;28;20192;-65
2021/12/30 10:10:38;;;;;;;0.63;0.60;;;16.90;99.90;;;;;;5055351;28;20402;-65
2021/12/30 10:13:29;;;;;;;1.50;0.53;;;17.10;99.90;;;;;;5055070;28;20951;-65
2021/12/30 10:16:13;;;;;;;1.73;0.50;;;17.30;99.90;;;;;;5055195;28;20771;-65
2021/12/30 10:18:50;;;;;;;7.40;0.83;;;17.60;99.90;;;;;;5055349;28;20397;-65
2021/12/30 10:21:23;;;;;;;1.13;1.03;;;18.00;99.90;;;;;;5054894;28;20395;-65
2021/12/30 10:23:52;;;;;;;0.70;0.57;;;18.30;99.90;;;;;;5055178;28;20400;-64
2021/12/30 10:26:18;;;;;;;1.03;0.40;;;18.30;99.90;;;;;;5054978;28;20459;-66
2021/12/30 10:28:45;;;;;;;0.40;0.40;;;18.30;99.90;;;;;;5054939;28;20400;-65
2021/12/30 10:31:13;;;;;;;0.50;0.33;;;18.40;99.90;;;;;;5054573;28;20169;-64
2021/12/30 10:33:51;;;;;;;0.40;0.40;;;18.20;99.90;;;;;;5054780;28;20753;-65
2021/12/30 10:36:20;;;;;;;0.60;0.40;;;18.20;99.90;;;;;;5054938;28;20519;-64
2021/12/30 10:38:47;;;;;;;0.50;0.50;;;18.10;99.90;;;;;;5054925;28;20375;-66
2021/12/30 10:41:14;;;;;;;3.03;1.07;;;18.10;99.90;;;;;;5054474;28;20799;-65
2021/12/30 10:46:08;;;;;;;1.07;1.07;;;18.10;99.90;;;;;;5055717;28;20790;-65
2021/12/30 10:48:43;;;;;;;0.90;0.80;;;18.10;99.90;;;;;;5056004;28;20378;-64
2021/12/30 10:51:19;;;;;;;0.60;0.60;;;18.10;99.90;;;;;;5055194;28;20161;-65
2021/12/30 10:53:45;;;;;;;0.50;0.50;;;18.00;99.90;;;;;;5053114;28;20439;-64
2021/12/30 10:56:31;;;;;;;0.47;0.47;;;18.00;99.90;;;;;;5054379;28;20404;-65
2021/12/30 10:59:17;;;;;;;0.90;0.60;;;17.90;99.90;;;;;;5062298;28;20961;-64
2021/12/30 11:01:49;;;;;;;0.83;0.83;;;17.90;99.90;;;;;;5072640;28;20754;-64
2021/12/30 11:04:18;;;;;;;0.97;0.60;;;17.80;99.90;;;;;;5074310;28;20485;-65
2021/12/30 11:06:46;;;;;;;0.67;0.67;;;17.80;99.90;;;;;;5073925;28;20486;-64
2021/12/30 11:09:16;;;;;;;0.50;0.50;;;17.70;99.90;;;;;;5072820;28;20410;-65
2021/12/30 11:12:05;;;;;;;0.50;0.50;;;17.60;99.90;;;;;;5073714;28;20410;-64
2021/12/30 11:14:40;;;;;;;1.07;0.60;;;17.60;99.90;;;;;;5074649;28;20399;-64
2021/12/30 11:17:14;;;;;;;0.70;0.70;;;17.60;99.90;;;;;;5074206;28;20933;-65
2021/12/30 11:19:43;;;;;;;0.83;0.60;;;17.60;99.90;;;;;;5073975;28;20414;-64
2021/12/30 11:22:21;;;;;;;0.60;0.60;;;17.80;99.90;;;;;;5073532;28;20414;-63
2021/12/30 11:24:49;;;;;;;1.30;1.20;;;17.80;99.90;;;;;;5074037;28;20402;-65
2021/12/30 11:27:16;;;;;;;0.87;0.87;;;17.90;99.90;;;;;;5073727;28;20817;-66
2021/12/30 11:29:45;;;;;;;0.50;0.50;;;17.90;99.90;;;;;;5074085;28;20431;-66
2021/12/30 11:32:15;;;;;;;0.40;0.40;;;18.10;99.90;;;;;;5073609;28;20407;-65
2021/12/30 11:34:41;;;;;;;0.77;0.77;;;18.20;99.90;;;;;;5074520;28;20399;-66
2021/12/30 11:37:07;;;;;;;1.07;0.53;;;18.30;99.90;;;;;;5073797;28;20925;-65
2021/12/30 11:39:33;;;;;;;1.73;0.80;;;18.20;99.90;;;;;;5073893;28;20674;-65
2021/12/30 11:42:07;;;;;;;0.50;0.50;;;18.20;99.90;;;;;;5073393;28;20403;-64
2021/12/30 11:44:35;;;;;;;0.97;0.50;;;18.20;99.90;;;;;;5073378;28;20380;-64
2021/12/30 11:47:01;;;;;;;0.60;0.60;;;18.30;99.90;;;;;;5073473;28;20469;-63
2021/12/30 11:49:58;;;;;;;0.73;0.73;;;18.40;99.90;;;;;;5073767;28;20406;-64
2021/12/30 11:52:51;;;;;;;0.50;0.50;;;18.50;99.90;;;;;;5073173;28;20403;-64
2021/12/30 11:55:38;;;;;;;0.60;0.60;;;18.60;99.90;;;;;;5073584;28;20399;-64
2021/12/30 11:58:29;;;;;;;0.40;0.40;;;18.60;99.90;;;;;;5072512;28;20483;-64
2021/12/30 12:00:56;;;;;;;0.47;0.47;;;18.70;99.90;;;;;;5053508;28;20387;-64
2021/12/30 12:03:34;;;;;;;0.37;0.37;;;18.60;99.90;;;;;;5052912;28;20522;-64
2021/12/30 12:06:04;;;;;;;0.60;0.60;;;18.70;99.90;;;;;;5053339;28;20451;-64
2021/12/30 12:08:43;;;;;;;0.70;0.60;;;18.80;99.90;;;;;;5053295;28;20407;-65
2021/12/30 12:11:16;;;;;;;0.50;0.50;;;18.70;99.90;;;;;;5052990;28;20803;-65
2021/12/30 12:13:43;;;;;;;1.37;0.40;;;18.60;99.90;;;;;;5053513;28;20379;-64
2021/12/30 12:16:09;;;;;;;0.93;0.93;;;18.50;99.90;;;;;;5053336;28;20450;-64
2021/12/30 12:18:35;;;;;;;1.07;0.80;;;18.30;99.90;;;;;;5053173;28;20438;-64
2021/12/30 12:21:05;;;;;;;0.70;0.50;;;18.20;99.90;;;;;;5053037;28;20508;-65
2021/12/30 12:23:34;;;;;;;0.50;0.47;;;18.10;99.90;;;;;;5053315;28;20545;-64
2021/12/30 12:26:20;;;;;;;1.07;0.70;;;18.10;99.90;;;;;;5052961;28;20437;-64
2021/12/30 12:28:47;;;;;;;0.57;0.57;;;18.00;99.90;;;;;;5051967;28;20404;-63
2021/12/30 12:31:13;;;;;;;0.60;0.60;;;17.90;99.90;;;;;;5051408;28;20384;-65
2021/12/30 12:33:41;;;;;;;0.50;0.50;;;17.90;99.90;;;;;;5052845;28;20399;-64
2021/12/30 12:36:18;;;;;;;0.70;0.70;;;17.90;99.90;;;;;;5052717;28;20412;-63
2021/12/30 12:38:53;;;;;;;0.77;0.70;;;17.90;99.90;;;;;;5053110;28;20406;-64
2021/12/30 12:41:20;;;;;;;0.50;0.50;;;17.90;99.90;;;;;;5051666;28;21224;-64
2021/12/30 12:43:51;;;;;;;0.80;0.50;;;17.80;99.90;;;;;;5053075;28;20402;-63
2021/12/30 12:46:16;;;;;;;0.80;0.80;;;17.60;99.90;;;;;;5052930;28;20846;-64
2021/12/30 12:48:52;;;;;;;1.00;0.90;;;17.50;99.90;;;;;;5051468;28;20410;-63
2021/12/30 12:51:20;;;;;;;0.50;0.50;;;17.30;99.90;;;;;;5052486;28;20237;-63
2021/12/30 12:53:51;;;;;;;0.40;0.40;;;17.20;99.90;;;;;;5053074;28;20399;-63
2021/12/30 12:56:39;;;;;;;0.53;0.53;;;17.10;99.90;;;;;;5056903;28;20486;-64